Terminal Aerodrome Forecast
Issued by NWS

Home | Current Version | Previous Version | Text Only | Print | Product List | Glossary On
Versions: 1 2 3 4 5 6 7 8 9 10 11 12 13 14 15 16 17 18 19
493
FTUS46 KEKA 170530
TAFCEC
TAF
KCEC 170530Z 1706/1806 VRB03KT 5SM BR FEW003 SCT250
     FM170800 15004KT 3SM BR SCT003
      TEMPO 1709/1713 1SM BR BKN003
     FM171730 28005KT P6SM SCT250=

USA.gov is the U.S. government's official web portal to all federal, state and local government web resources and services.